sensor_id;sensor_type;location;lat;lon;timestamp;pressure;altitude;pressure_sealevel;temperature;humidity
9277;BME280;4676;42.678;23.244;2023-04-06T00:00:04;57322.41;;;-142.38;100.00
9277;BME280;4676;42.678;23.244;2023-04-06T00:02:34;57322.41;;;-142.38;100.00
9277;BME280;4676;42.678;23.244;2023-04-06T00:05:02;57322.41;;;-142.38;100.00
9277;BME280;4676;42.678;23.244;2023-04-06T00:07:29;57322.41;;;-142.38;100.00
9277;BME280;4676;42.678;23.244;2023-04-06T00:09:56;57322.41;;;-142.38;100.00
9277;BME280;4676;42.678;23.244;2023-04-06T00:12:23;57322.41;;;-142.38;100.00
9277;BME280;4676;42.678;23.244;2023-04-06T00:14:49;57322.41;;;-142.38;100.00
9277;BME280;4676;42.678;23.244;2023-04-06T00:17:16;57322.41;;;-142.38;100.00
9277;BME280;4676;42.678;23.244;2023-04-06T00:19:43;57322.41;;;-142.38;100.00
9277;BME280;4676;42.678;23.244;2023-04-06T00:22:11;57322.41;;;-142.38;100.00
9277;BME280;4676;42.678;23.244;2023-04-06T00:24:38;57322.41;;;-142.38;100.00
9277;BME280;4676;42.678;23.244;2023-04-06T00:27:05;57322.41;;;-142.38;100.00
9277;BME280;4676;42.678;23.244;2023-04-06T00:29:32;57322.41;;;-142.38;100.00
9277;BME280;4676;42.678;23.244;2023-04-06T00:31:58;57322.41;;;22.99;100.00
9277;BME280;4676;42.678;23.244;2023-04-06T00:34:25;57322.41;;;-142.38;100.00
9277;BME280;4676;42.678;23.244;2023-04-06T00:36:52;57322.41;;;-142.38;100.00
9277;BME280;4676;42.678;23.244;2023-04-06T00:39:20;57322.41;;;-142.38;100.00
9277;BME280;4676;42.678;23.244;2023-04-06T00:41:50;57322.41;;;-142.38;100.00
9277;BME280;4676;42.678;23.244;2023-04-06T00:44:17;57322.41;;;-142.38;100.00
9277;BME280;4676;42.678;23.244;2023-04-06T00:46:44;57322.41;;;-142.38;100.00
9277;BME280;4676;42.678;23.244;2023-04-06T00:49:11;57322.41;;;-142.38;100.00
9277;BME280;4676;42.678;23.244;2023-04-06T00:51:38;57322.41;;;-142.38;100.00
9277;BME280;4676;42.678;23.244;2023-04-06T00:54:05;57322.41;;;-142.38;100.00
9277;BME280;4676;42.678;23.244;2023-04-06T00:56:33;57322.41;;;-142.38;100.00
9277;BME280;4676;42.678;23.244;2023-04-06T00:59:00;57322.41;;;-142.38;100.00
9277;BME280;4676;42.678;23.244;2023-04-06T01:01:28;57322.41;;;-142.38;100.00
9277;BME280;4676;42.678;23.244;2023-04-06T01:03:58;57322.41;;;-142.38;100.00
9277;BME280;4676;42.678;23.244;2023-04-06T01:06:24;57322.41;;;-142.38;100.00
9277;BME280;4676;42.678;23.244;2023-04-06T01:08:51;57322.41;;;-142.38;100.00
9277;BME280;4676;42.678;23.244;2023-04-06T01:11:18;57322.41;;;-142.38;100.00
9277;BME280;4676;42.678;23.244;2023-04-06T01:13:46;57322.41;;;-142.38;100.00
9277;BME280;4676;42.678;23.244;2023-04-06T01:16:13;57322.41;;;-142.38;100.00
9277;BME280;4676;42.678;23.244;2023-04-06T01:18:40;57322.41;;;-142.38;100.00
9277;BME280;4676;42.678;23.244;2023-04-06T01:21:07;57322.41;;;-142.38;100.00
9277;BME280;4676;42.678;23.244;2023-04-06T01:23:42;57322.41;;;-142.38;100.00
9277;BME280;4676;42.678;23.244;2023-04-06T01:26:09;57322.41;;;-142.38;100.00
9277;BME280;4676;42.678;23.244;2023-04-06T01:28:36;57322.41;;;-142.38;100.00
9277;BME280;4676;42.678;23.244;2023-04-06T01:31:04;57322.41;;;22.99;100.00
9277;BME280;4676;42.678;23.244;2023-04-06T01:33:31;57322.41;;;-142.38;100.00
9277;BME280;4676;42.678;23.244;2023-04-06T01:35:57;57322.41;;;-142.38;100.00
9277;BME280;4676;42.678;23.244;2023-04-06T01:38:24;57322.41;;;-142.38;100.00
9277;BME280;4676;42.678;23.244;2023-04-06T01:40:53;57322.41;;;-142.38;100.00
9277;BME280;4676;42.678;23.244;2023-04-06T01:43:20;57322.41;;;-142.38;100.00
9277;BME280;4676;42.678;23.244;2023-04-06T01:45:47;57322.41;;;-142.38;100.00
9277;BME280;4676;42.678;23.244;2023-04-06T01:48:14;57322.41;;;-142.38;100.00
9277;BME280;4676;42.678;23.244;2023-04-06T01:50:41;57322.41;;;-142.38;100.00
9277;BME280;4676;42.678;23.244;2023-04-06T01:53:08;57322.41;;;-142.38;100.00
9277;BME280;4676;42.678;23.244;2023-04-06T01:55:35;57322.41;;;-142.38;100.00
9277;BME280;4676;42.678;23.244;2023-04-06T01:58:03;57322.41;;;-142.38;100.00
9277;BME280;4676;42.678;23.244;2023-04-06T02:00:30;57322.41;;;-142.38;100.00
9277;BME280;4676;42.678;23.244;2023-04-06T02:02:56;57322.41;;;-142.38;100.00
9277;BME280;4676;42.678;23.244;2023-04-06T02:05:23;57322.41;;;-142.38;100.00
9277;BME280;4676;42.678;23.244;2023-04-06T02:07:50;57322.41;;;-142.38;100.00
9277;BME280;4676;42.678;23.244;2023-04-06T02:10:17;57322.41;;;-142.38;100.00
9277;BME280;4676;42.678;23.244;2023-04-06T02:12:44;57322.41;;;-142.38;100.00
9277;BME280;4676;42.678;23.244;2023-04-06T02:15:12;93748.22;;;0.61;nan
9277;BME280;4676;42.678;23.244;2023-04-06T02:17:39;93751.50;;;0.69;nan
9277;BME280;4676;42.678;23.244;2023-04-06T02:20:07;93750.59;;;0.74;nan
9277;BME280;4676;42.678;23.244;2023-04-06T02:22:34;93751.47;;;0.72;nan
9277;BME280;4676;42.678;23.244;2023-04-06T02:25:01;93743.91;;;0.78;nan
9277;BME280;4676;42.678;23.244;2023-04-06T02:27:28;93746.44;;;0.76;nan
9277;BME280;4676;42.678;23.244;2023-04-06T02:29:55;93752.19;;;0.84;nan
9277;BME280;4676;42.678;23.244;2023-04-06T02:32:23;93755.53;;;0.82;nan
9277;BME280;4676;42.678;23.244;2023-04-06T02:34:50;93753.94;;;0.73;nan
9277;BME280;4676;42.678;23.244;2023-04-06T02:37:16;93747.25;;;0.80;nan
9277;BME280;4676;42.678;23.244;2023-04-06T02:39:43;93750.56;;;0.80;nan
9277;BME280;4676;42.678;23.244;2023-04-06T02:42:10;93748.84;;;0.85;nan
9277;BME280;4676;42.678;23.244;2023-04-06T02:44:37;93754.59;;;0.93;nan
9277;BME280;4676;42.678;23.244;2023-04-06T02:47:04;93761.28;;;0.88;nan
9277;BME280;4676;42.678;23.244;2023-04-06T02:49:32;93757.13;;;0.89;nan
9277;BME280;4676;42.678;23.244;2023-04-06T02:51:59;93752.19;;;0.84;nan
9277;BME280;4676;42.678;23.244;2023-04-06T02:54:26;93757.22;;;0.78;nan
9277;BME280;4676;42.678;23.244;2023-04-06T02:56:52;93751.44;;;0.75;nan
9277;BME280;4676;42.678;23.244;2023-04-06T02:59:19;93749.81;;;0.74;nan
9277;BME280;4676;42.678;23.244;2023-04-06T03:01:46;93759.69;;;0.83;nan
9277;BME280;4676;42.678;23.244;2023-04-06T03:04:13;93752.97;;;0.89;nan
9277;BME280;4676;42.678;23.244;2023-04-06T03:06:41;93754.75;;;0.77;nan
9277;BME280;4676;42.678;23.244;2023-04-06T03:09:08;93753.06;;;0.79;nan
9277;BME280;4676;42.678;23.244;2023-04-06T03:11:35;93746.41;;;0.78;nan
9277;BME280;4676;42.678;23.244;2023-04-06T03:14:01;93747.22;;;0.81;nan
9277;BME280;4676;42.678;23.244;2023-04-06T03:16:28;93753.09;;;0.77;nan
9277;BME280;4676;42.678;23.244;2023-04-06T03:18:55;93746.41;;;0.81;nan
9277;BME280;4676;42.678;23.244;2023-04-06T03:21:22;93748.03;;;0.83;nan
9277;BME280;4676;42.678;23.244;2023-04-06T03:23:50;93744.75;;;0.80;nan
9277;BME280;4676;42.678;23.244;2023-04-06T03:26:17;93739.72;;;0.81;nan
9277;BME280;4676;42.678;23.244;2023-04-06T03:28:44;93742.16;;;0.90;nan
9277;BME280;4676;42.678;23.244;2023-04-06T03:31:11;93739.63;;;0.95;nan
9277;BME280;4676;42.678;23.244;2023-04-06T03:33:37;93745.47;;;0.91;nan
9277;BME280;4676;42.678;23.244;2023-04-06T03:36:05;93738.78;;;0.94;nan
9277;BME280;4676;42.678;23.244;2023-04-06T03:38:33;93736.34;;;0.90;nan
9277;BME280;4676;42.678;23.244;2023-04-06T03:41:01;93739.63;;;0.92;nan
9277;BME280;4676;42.678;23.244;2023-04-06T03:43:28;93746.22;;;0.99;nan
9277;BME280;4676;42.678;23.244;2023-04-06T03:45:55;93739.63;;;0.93;nan
9277;BME280;4676;42.678;23.244;2023-04-06T03:48:21;93737.19;;;0.87;nan
9277;BME280;4676;42.678;23.244;2023-04-06T03:50:48;93737.16;;;0.89;nan
9277;BME280;4676;42.678;23.244;2023-04-06T03:53:15;93742.97;;;0.92;nan
9277;BME280;4676;42.678;23.244;2023-04-06T03:55:42;93734.69;;;0.90;nan
9277;BME280;4676;42.678;23.244;2023-04-06T03:58:10;93737.13;;;0.93;nan
9277;BME280;4676;42.678;23.244;2023-04-06T04:00:37;93718.94;;;0.82;nan
9277;BME280;4676;42.678;23.244;2023-04-06T04:03:04;93736.31;;;0.94;nan
9277;BME280;4676;42.678;23.244;2023-04-06T04:05:31;93734.69;;;0.90;nan
9277;BME280;4676;42.678;23.244;2023-04-06T04:07:57;93736.31;;;0.93;nan
9277;BME280;4676;42.678;23.244;2023-04-06T04:10:24;93744.63;;;0.92;nan
9277;BME280;4676;42.678;23.244;2023-04-06T04:12:51;93745.44;;;0.92;nan
9277;BME280;4676;42.678;23.244;2023-04-06T04:15:19;93741.31;;;0.90;nan
9277;BME280;4676;42.678;23.244;2023-04-06T04:17:47;93748.72;;;0.99;nan
9277;BME280;4676;42.678;23.244;2023-04-06T04:20:14;93736.28;;;0.97;nan
9277;BME280;4676;42.678;23.244;2023-04-06T04:22:41;93737.88;;;1.03;nan
9277;BME280;4676;42.678;23.244;2023-04-06T04:25:09;93710.50;;;0.95;nan
9277;BME280;4676;42.678;23.244;2023-04-06T04:27:36;93735.28;;;1.12;nan
9277;BME280;4676;42.678;23.244;2023-04-06T04:30:03;93735.22;;;1.17;nan
9277;BME280;4676;42.678;23.244;2023-04-06T04:32:31;93724.44;;;1.13;nan
9277;BME280;4676;42.678;23.244;2023-04-06T04:34:58;93739.41;;;1.13;nan
9277;BME280;4676;42.678;23.244;2023-04-06T04:37:25;93737.88;;;1.03;nan
9277;BME280;4676;42.678;23.244;2023-04-06T04:39:51;93737.00;;;1.09;nan
9277;BME280;4676;42.678;23.244;2023-04-06T04:42:18;93735.22;;;1.17;nan
9277;BME280;4676;42.678;23.244;2023-04-06T04:44:45;93726.22;;;1.05;nan
9277;BME280;4676;42.678;23.244;2023-04-06T04:47:12;93733.59;;;1.14;nan
9277;BME280;4676;42.678;23.244;2023-04-06T04:49:40;93732.72;;;1.18;nan
9277;BME280;4676;42.678;23.244;2023-04-06T04:52:07;93733.59;;;1.16;nan
9277;BME280;4676;42.678;23.244;2023-04-06T04:54:34;93731.09;;;1.16;nan
9277;BME280;4676;42.678;23.244;2023-04-06T04:57:01;93732.69;;;1.23;nan
9277;BME280;4676;42.678;23.244;2023-04-06T04:59:27;93737.69;;;1.21;nan
9277;BME280;4676;42.678;23.244;2023-04-06T05:01:55;93739.25;;;1.31;nan
9277;BME280;4676;42.678;23.244;2023-04-06T05:04:22;93735.94;;;1.28;nan
9277;BME280;4676;42.678;23.244;2023-04-06T05:06:50;93732.56;;;1.32;nan
9277;BME280;4676;42.678;23.244;2023-04-06T05:09:17;93736.78;;;1.30;nan
9277;BME280;4676;42.678;23.244;2023-04-06T05:11:44;93734.28;;;1.30;nan
9277;BME280;4676;42.678;23.244;2023-04-06T05:14:11;93734.38;;;1.19;nan
9277;BME280;4676;42.678;23.244;2023-04-06T05:16:37;93725.16;;;1.26;nan
9277;BME280;4676;42.678;23.244;2023-04-06T05:19:04;93726.00;;;1.26;nan
9277;BME280;4676;42.678;23.244;2023-04-06T05:21:31;93726.78;;;1.30;nan
9277;BME280;4676;42.678;23.244;2023-04-06T05:23:59;93731.78;;;1.27;nan
9277;BME280;4676;42.678;23.244;2023-04-06T05:26:27;93734.25;;;1.31;nan
9277;BME280;4676;42.678;23.244;2023-04-06T05:28:54;93722.63;;;1.27;nan
9277;BME280;4676;42.678;23.244;2023-04-06T05:31:21;93727.47;;;1.44;nan
9277;BME280;4676;42.678;23.244;2023-04-06T05:33:48;93729.97;;;1.44;nan
9277;BME280;4676;42.678;23.244;2023-04-06T05:36:15;93732.28;;;1.58;nan
9277;BME280;4676;42.678;23.244;2023-04-06T05:38:42;93729.13;;;1.42;nan
9277;BME280;4676;42.678;23.244;2023-04-06T05:41:10;93725.00;;;1.38;nan
9277;BME280;4676;42.678;23.244;2023-04-06T05:43:37;93727.69;;;1.23;nan
9277;BME280;4676;42.678;23.244;2023-04-06T05:46:04;93730.94;;;1.29;nan
9277;BME280;4676;42.678;23.244;2023-04-06T05:48:31;93717.59;;;1.32;nan
9277;BME280;4676;42.678;23.244;2023-04-06T05:50:58;93727.63;;;1.27;nan
9277;BME280;4676;42.678;23.244;2023-04-06T05:53:26;93723.38;;;1.34;nan
9277;BME280;4676;42.678;23.244;2023-04-06T05:55:54;93719.16;;;1.43;nan
9277;BME280;4676;42.678;23.244;2023-04-06T05:58:22;93721.56;;;1.49;nan
9277;BME280;4676;42.678;23.244;2023-04-06T06:00:49;93727.38;;;1.50;nan
9277;BME280;4676;42.678;23.244;2023-04-06T06:03:16;93718.41;;;1.35;nan
9277;BME280;4676;42.678;23.244;2023-04-06T06:05:42;93716.88;;;1.21;nan
9277;BME280;4676;42.678;23.244;2023-04-06T06:08:09;93716.81;;;1.28;nan
9277;BME280;4676;42.678;23.244;2023-04-06T06:10:38;93719.31;;;1.30;nan
9277;BME280;4676;42.678;23.244;2023-04-06T06:13:05;93715.09;;;1.32;nan
9277;BME280;4676;42.678;23.244;2023-04-06T06:15:33;93719.19;;;1.37;nan
9277;BME280;4676;42.678;23.244;2023-04-06T06:18:00;93720.81;;;1.43;nan
9277;BME280;4676;42.678;23.244;2023-04-06T06:20:27;93714.78;;;1.59;nan
9277;BME280;4676;42.678;23.244;2023-04-06T06:22:54;93718.66;;;1.81;nan
9277;BME280;4676;42.678;23.244;2023-04-06T06:25:21;93713.81;;;1.69;nan
9277;BME280;4676;42.678;23.244;2023-04-06T06:27:48;93714.59;;;1.76;nan
9277;BME280;4676;42.678;23.244;2023-04-06T06:30:15;93706.81;;;1.94;nan
9277;BME280;4676;42.678;23.244;2023-04-06T06:32:44;93719.34;;;1.92;nan
9277;BME280;4676;42.678;23.244;2023-04-06T06:35:11;93716.72;;;2.03;nan
9277;BME280;4676;42.678;23.244;2023-04-06T06:37:38;93721.94;;;1.86;nan
9277;BME280;4676;42.678;23.244;2023-04-06T06:40:06;93708.66;;;1.83;nan
9277;BME280;4676;42.678;23.244;2023-04-06T06:42:33;93719.44;;;1.86;nan
9277;BME280;4676;42.678;23.244;2023-04-06T06:45:00;93719.34;;;1.92;nan
9277;BME280;4676;42.678;23.244;2023-04-06T06:47:26;93725.78;;;2.09;nan
9277;BME280;4676;42.678;23.244;2023-04-06T06:49:55;93719.22;;;2.03;nan
9277;BME280;4676;42.678;23.244;2023-04-06T06:52:21;93730.47;;;2.30;nan
9277;BME280;4676;42.678;23.244;2023-04-06T06:54:49;93728.59;;;2.45;nan
9277;BME280;4676;42.678;23.244;2023-04-06T06:57:16;93730.22;;;2.46;nan
9277;BME280;4676;42.678;23.244;2023-04-06T06:59:42;93722.69;;;2.49;nan
9277;BME280;4676;42.678;23.244;2023-04-06T07:02:09;93720.19;;;2.49;nan
9277;BME280;4676;42.678;23.244;2023-04-06T07:04:36;93725.41;;;2.88;nan
9277;BME280;4676;42.678;23.244;2023-04-06T07:07:04;93720.28;;;2.95;nan
9277;BME280;4676;42.678;23.244;2023-04-06T07:09:31;93728.63;;;2.93;nan
9277;BME280;4676;42.678;23.244;2023-04-06T07:11:58;93727.38;;;2.68;nan
9277;BME280;4676;42.678;23.244;2023-04-06T07:14:26;93724.91;;;2.66;nan
9277;BME280;4676;42.678;23.244;2023-04-06T07:16:53;93723.91;;;2.78;nan
9277;BME280;4676;42.678;23.244;2023-04-06T07:19:19;93723.75;;;2.87;nan
9277;BME280;4676;42.678;23.244;2023-04-06T07:21:46;93715.44;;;2.85;nan
9277;BME280;4676;42.678;23.244;2023-04-06T07:24:15;93722.00;;;2.92;nan
9277;BME280;4676;42.678;23.244;2023-04-06T07:26:42;93718.84;;;2.79;nan
9277;BME280;4676;42.678;23.244;2023-04-06T07:29:09;93719.34;;;2.49;nan
9277;BME280;4676;42.678;23.244;2023-04-06T07:31:36;93725.88;;;2.59;nan
9277;BME280;4676;42.678;23.244;2023-04-06T07:34:03;93698.47;;;2.53;nan
9277;BME280;4676;42.678;23.244;2023-04-06T07:36:29;93716.59;;;2.64;nan
9277;BME280;4676;42.678;23.244;2023-04-06T07:38:56;93723.22;;;2.68;nan
9277;BME280;4676;42.678;23.244;2023-04-06T07:41:24;93703.34;;;2.59;nan
9277;BME280;4676;42.678;23.244;2023-04-06T07:43:51;93721.53;;;2.70;nan
9277;BME280;4676;42.678;23.244;2023-04-06T07:46:18;93708.31;;;2.62;nan
9277;BME280;4676;42.678;23.244;2023-04-06T07:48:45;93717.97;;;2.83;nan
9277;BME280;4676;42.678;23.244;2023-04-06T07:51:11;93718.66;;;2.91;nan
9277;BME280;4676;42.678;23.244;2023-04-06T07:53:40;93719.75;;;2.75;nan
9277;BME280;4676;42.678;23.244;2023-04-06T07:56:07;93723.31;;;2.61;nan
9277;BME280;4676;42.678;23.244;2023-04-06T07:58:35;93716.00;;;2.50;nan
9277;BME280;4676;42.678;23.244;2023-04-06T08:01:02;93719.19;;;2.58;nan
9277;BME280;4676;42.678;23.244;2023-04-06T08:03:29;93715.19;;;2.48;nan
9277;BME280;4676;42.678;23.244;2023-04-06T08:05:55;93726.09;;;2.44;nan
9277;BME280;4676;42.678;23.244;2023-04-06T08:08:22;93724.44;;;2.43;nan
9277;BME280;4676;42.678;23.244;2023-04-06T08:10:49;93721.03;;;2.48;nan
9277;BME280;4676;42.678;23.244;2023-04-06T08:13:16;93721.31;;;2.82;nan
9277;BME280;4676;42.678;23.244;2023-04-06T08:15:44;93719.69;;;2.80;nan
9277;BME280;4676;42.678;23.244;2023-04-06T08:18:11;93717.06;;;2.87;nan
9277;BME280;4676;42.678;23.244;2023-04-06T08:20:38;93705.13;;;3.01;nan
9277;BME280;4676;42.678;23.244;2023-04-06T08:23:05;93713.94;;;3.22;nan
9277;BME280;4676;42.678;23.244;2023-04-06T08:25:35;93718.13;;;3.20;nan
9277;BME280;4676;42.678;23.244;2023-04-06T08:28:02;93730.63;;;3.23;nan
9277;BME280;4676;42.678;23.244;2023-04-06T08:30:29;93723.25;;;3.16;nan
9277;BME280;4676;42.678;23.244;2023-04-06T08:32:57;93734.94;;;3.14;nan
9277;BME280;4676;42.678;23.244;2023-04-06T08:35:24;93733.19;;;3.19;nan
9277;BME280;4676;42.678;23.244;2023-04-06T08:37:52;93732.94;;;3.31;nan
9277;BME280;4676;42.678;23.244;2023-04-06T08:40:19;93739.28;;;3.51;nan
9277;BME280;4676;42.678;23.244;2023-04-06T08:42:54;93725.81;;;3.56;nan
9277;BME280;4676;42.678;23.244;2023-04-06T08:45:21;93730.03;;;3.52;nan
9277;BME280;4676;42.678;23.244;2023-04-06T08:47:48;93734.25;;;3.51;nan
9277;BME280;4676;42.678;23.244;2023-04-06T08:50:18;93730.09;;;3.49;nan
9277;BME280;4676;42.678;23.244;2023-04-06T08:52:46;93730.75;;;3.16;nan
9277;BME280;4676;42.678;23.244;2023-04-06T08:55:14;93726.97;;;3.38;nan
9277;BME280;4676;42.678;23.244;2023-04-06T08:57:41;93727.94;;;3.32;nan
9277;BME280;4676;42.678;23.244;2023-04-06T09:00:10;93719.25;;;3.48;nan
9277;BME280;4676;42.678;23.244;2023-04-06T09:02:39;93721.31;;;3.73;nan
9277;BME280;4676;42.678;23.244;2023-04-06T09:05:07;93725.88;;;3.94;nan
9277;BME280;4676;42.678;23.244;2023-04-06T09:07:37;93727.41;;;4.01;nan
9277;BME280;4676;42.678;23.244;2023-04-06T09:10:05;93722.56;;;3.50;nan
9277;BME280;4676;42.678;23.244;2023-04-06T09:12:32;93701.78;;;3.45;nan
9277;BME280;4676;42.678;23.244;2023-04-06T09:15:00;93714.66;;;3.70;nan
9277;BME280;4676;42.678;23.244;2023-04-06T09:17:29;93704.75;;;3.66;nan
9277;BME280;4676;42.678;23.244;2023-04-06T09:19:58;93719.00;;;4.02;nan
9277;BME280;4676;42.678;23.244;2023-04-06T09:22:34;93709.72;;;4.07;nan
9277;BME280;4676;42.678;23.244;2023-04-06T09:25:03;93713.94;;;4.05;nan
9277;BME280;4676;42.678;23.244;2023-04-06T09:27:30;93722.41;;;3.99;nan
9277;BME280;4676;42.678;23.244;2023-04-06T09:30:04;93719.13;;;3.97;nan
9277;BME280;4676;42.678;23.244;2023-04-06T09:32:31;93719.38;;;4.24;nan
9277;BME280;4676;42.678;23.244;2023-04-06T09:35:06;93729.84;;;4.41;nan
9277;BME280;4676;42.678;23.244;2023-04-06T09:37:33;93724.09;;;4.37;nan
9277;BME280;4676;42.678;23.244;2023-04-06T09:40:05;93722.03;;;4.18;nan
9277;BME280;4676;42.678;23.244;2023-04-06T09:42:32;93715.09;;;4.29;nan
9277;BME280;4676;42.678;23.244;2023-04-06T09:44:59;93707.50;;;4.32;nan
9277;BME280;4676;42.678;23.244;2023-04-06T09:47:26;93714.50;;;4.18;nan
9277;BME280;4676;42.678;23.244;2023-04-06T09:49:56;93703.09;;;4.40;nan
9277;BME280;4676;42.678;23.244;2023-04-06T09:52:26;93685.38;;;4.47;nan
9277;BME280;4676;42.678;23.244;2023-04-06T09:54:55;93713.72;;;4.86;nan
9277;BME280;4676;42.678;23.244;2023-04-06T09:57:32;93702.97;;;4.81;nan
9277;BME280;4676;42.678;23.244;2023-04-06T10:00:03;93695.22;;;4.90;nan
9277;BME280;4676;42.678;23.244;2023-04-06T10:02:39;93708.59;;;4.91;nan
9277;BME280;4676;42.678;23.244;2023-04-06T10:05:09;93709.63;;;4.82;nan
9277;BME280;4676;42.678;23.244;2023-04-06T10:07:40;93705.22;;;4.92;nan
9277;BME280;4676;42.678;23.244;2023-04-06T10:10:10;93708.28;;;4.69;nan
9277;BME280;4676;42.678;23.244;2023-04-06T10:12:39;93712.97;;;4.47;nan
9277;BME280;4676;42.678;23.244;2023-04-06T10:15:08;93677.00;;;4.82;nan
9277;BME280;4676;42.678;23.244;2023-04-06T10:17:36;93699.38;;;4.91;nan
9277;BME280;4676;42.678;23.244;2023-04-06T10:20:07;93702.75;;;5.23;nan
9277;BME280;4676;42.678;23.244;2023-04-06T10:22:41;93703.78;;;5.16;nan
9277;BME280;4676;42.678;23.244;2023-04-06T10:25:16;93699.53;;;5.18;nan
9277;BME280;4676;42.678;23.244;2023-04-06T10:27:44;93687.22;;;5.39;nan
9277;BME280;4676;42.678;23.244;2023-04-06T10:30:11;93690.44;;;5.14;nan
9277;BME280;4676;42.678;23.244;2023-04-06T10:32:41;93693.28;;;5.00;nan
9277;BME280;4676;42.678;23.244;2023-04-06T10:35:10;93690.56;;;4.75;nan
9277;BME280;4676;42.678;23.244;2023-04-06T10:37:51;93689.22;;;4.62;nan
9277;BME280;4676;42.678;23.244;2023-04-06T10:40:20;93679.72;;;4.75;nan
9277;BME280;4676;42.678;23.244;2023-04-06T10:42:49;93675.38;;;4.81;nan
9277;BME280;4676;42.678;23.244;2023-04-06T10:45:20;93674.75;;;4.72;nan
9277;BME280;4676;42.678;23.244;2023-04-06T10:47:47;93686.25;;;4.46;nan
9277;BME280;4676;42.678;23.244;2023-04-06T10:50:15;93680.91;;;4.25;nan
9277;BME280;4676;42.678;23.244;2023-04-06T10:52:43;93691.88;;;4.19;nan
9277;BME280;4676;42.678;23.244;2023-04-06T10:55:11;93691.88;;;4.19;nan
9277;BME280;4676;42.678;23.244;2023-04-06T10:57:39;93677.41;;;4.30;nan
9277;BME280;4676;42.678;23.244;2023-04-06T11:00:08;93677.81;;;4.49;nan
9277;BME280;4676;42.678;23.244;2023-04-06T11:02:35;93673.84;;;4.40;nan
9277;BME280;4676;42.678;23.244;2023-04-06T11:05:03;93683.78;;;4.45;nan
9277;BME280;4676;42.678;23.244;2023-04-06T11:07:30;93678.41;;;4.59;nan
9277;BME280;4676;42.678;23.244;2023-04-06T11:09:57;93672.63;;;4.90;nan
9277;BME280;4676;42.678;23.244;2023-04-06T11:12:26;93670.19;;;4.87;nan
9277;BME280;4676;42.678;23.244;2023-04-06T11:14:55;93652.78;;;4.81;nan
9277;BME280;4676;42.678;23.244;2023-04-06T11:17:28;93659.22;;;4.90;nan
9277;BME280;4676;42.678;23.244;2023-04-06T11:19:55;93655.09;;;4.89;nan
9277;BME280;4676;42.678;23.244;2023-04-06T11:22:22;93667.59;;;4.90;nan
9277;BME280;4676;42.678;23.244;2023-04-06T11:24:49;93652.25;;;5.01;nan
9277;BME280;4676;42.678;23.244;2023-04-06T11:27:17;93651.78;;;4.87;nan
9277;BME280;4676;42.678;23.244;2023-04-06T11:29:44;93644.53;;;5.09;nan
9277;BME280;4676;42.678;23.244;2023-04-06T11:32:20;93640.22;;;5.14;nan
9277;BME280;4676;42.678;23.244;2023-04-06T11:34:48;93651.03;;;5.16;nan
9277;BME280;4676;42.678;23.244;2023-04-06T11:37:15;93650.28;;;5.12;nan
9277;BME280;4676;42.678;23.244;2023-04-06T11:39:47;93655.69;;;4.97;nan
9277;BME280;4676;42.678;23.244;2023-04-06T11:42:21;93645.47;;;5.04;nan
9277;BME280;4676;42.678;23.244;2023-04-06T11:44:50;93637.44;;;5.23;nan
9277;BME280;4676;42.678;23.244;2023-04-06T11:47:18;93633.94;;;5.28;nan
9277;BME280;4676;42.678;23.244;2023-04-06T11:49:48;93642.06;;;5.38;nan
9277;BME280;4676;42.678;23.244;2023-04-06T11:52:17;93632.88;;;5.06;nan
9277;BME280;4676;42.678;23.244;2023-04-06T11:54:44;93628.91;;;4.97;nan
9277;BME280;4676;42.678;23.244;2023-04-06T11:57:11;93628.13;;;5.26;nan
9277;BME280;4676;42.678;23.244;2023-04-06T11:59:38;93632.91;;;5.35;nan
9277;BME280;4676;42.678;23.244;2023-04-06T12:02:05;93632.16;;;5.32;nan
9277;BME280;4676;42.678;23.244;2023-04-06T12:04:32;93636.63;;;5.22;nan
9277;BME280;4676;42.678;23.244;2023-04-06T12:07:00;93630.13;;;5.15;nan
9277;BME280;4676;42.678;23.244;2023-04-06T12:09:27;93629.44;;;5.10;nan
9277;BME280;4676;42.678;23.244;2023-04-06T12:11:54;93613.38;;;5.14;nan
9277;BME280;4676;42.678;23.244;2023-04-06T12:14:21;93632.31;;;5.27;nan
9277;BME280;4676;42.678;23.244;2023-04-06T12:16:48;93632.13;;;5.33;nan
9277;BME280;4676;42.678;23.244;2023-04-06T12:19:16;93620.34;;;5.65;nan
9277;BME280;4676;42.678;23.244;2023-04-06T12:21:42;93624.84;;;5.83;nan
9277;BME280;4676;42.678;23.244;2023-04-06T12:24:11;93606.50;;;5.79;nan
9277;BME280;4676;42.678;23.244;2023-04-06T12:26:37;93623.31;;;5.77;nan
9277;BME280;4676;42.678;23.244;2023-04-06T12:29:04;93635.63;;;5.57;nan
9277;BME280;4676;42.678;23.244;2023-04-06T12:31:32;93622.28;;;5.26;nan
9277;BME280;4676;42.678;23.244;2023-04-06T12:33:59;93635.75;;;5.23;nan
9277;BME280;4676;42.678;23.244;2023-04-06T12:36:26;93628.88;;;5.30;nan
9277;BME280;4676;42.678;23.244;2023-04-06T12:38:53;93623.69;;;5.36;nan
9277;BME280;4676;42.678;23.244;2023-04-06T12:41:22;93631.69;;;5.19;nan
9277;BME280;4676;42.678;23.244;2023-04-06T12:43:50;93615.13;;;5.12;nan
9277;BME280;4676;42.678;23.244;2023-04-06T12:46:17;93622.31;;;5.24;nan
9277;BME280;4676;42.678;23.244;2023-04-06T12:48:44;93620.59;;;5.26;nan
9277;BME280;4676;42.678;23.244;2023-04-06T12:51:11;93625.66;;;5.25;nan
9277;BME280;4676;42.678;23.244;2023-04-06T12:53:38;93615.56;;;5.26;nan
9277;BME280;4676;42.678;23.244;2023-04-06T12:56:11;93613.81;;;5.30;nan
9277;BME280;4676;42.678;23.244;2023-04-06T12:58:40;93609.41;;;5.38;nan
9277;BME280;4676;42.678;23.244;2023-04-06T13:01:07;93612.22;;;5.27;nan
9277;BME280;4676;42.678;23.244;2023-04-06T13:03:34;93608.34;;;5.16;nan
9277;BME280;4676;42.678;23.244;2023-04-06T13:06:01;93603.53;;;5.08;nan
9277;BME280;4676;42.678;23.244;2023-04-06T13:08:29;93606.66;;;5.16;nan
9277;BME280;4676;42.678;23.244;2023-04-06T13:10:56;93606.09;;;5.07;nan
9277;BME280;4676;42.678;23.244;2023-04-06T13:13:24;93588.00;;;4.94;nan
9277;BME280;4676;42.678;23.244;2023-04-06T13:18:23;93591.03;;;4.74;nan
9277;BME280;4676;42.678;23.244;2023-04-06T13:20:50;93596.75;;;4.79;nan
9277;BME280;4676;42.678;23.244;2023-04-06T13:23:17;93590.63;;;4.89;nan
9277;BME280;4676;42.678;23.244;2023-04-06T13:25:43;93598.78;;;4.97;nan
9277;BME280;4676;42.678;23.244;2023-04-06T13:28:11;93588.47;;;4.76;nan
9277;BME280;4676;42.678;23.244;2023-04-06T13:30:37;93587.81;;;4.69;nan
9277;BME280;4676;42.678;23.244;2023-04-06T13:33:04;93594.31;;;4.78;nan
9277;BME280;4676;42.678;23.244;2023-04-06T13:35:33;93596.72;;;4.81;nan